createdAt,value
2023-05-19T00:00:59.610Z,1735.00
2023-05-19T00:01:59.639Z,1682.00
2023-05-19T00:02:59.759Z,1649.00
2023-05-19T00:03:59.640Z,1703.00
2023-05-19T00:04:59.669Z,1668.00
2023-05-19T00:05:59.770Z,1648.00
2023-05-19T00:06:59.708Z,1659.00
2023-05-19T00:07:59.736Z,1700.00
2023-05-19T00:08:59.770Z,1693.00
2023-05-19T00:09:59.765Z,1681.00
2023-05-19T00:10:59.778Z,1706.00
2023-05-19T00:11:59.796Z,1681.00
2023-05-19T00:12:59.834Z,1657.00
2023-05-19T00:13:59.928Z,1666.00
2023-05-19T00:14:59.883Z,1684.00
2023-05-19T00:15:59.936Z,1688.00
2023-05-19T00:16:59.921Z,1706.00
2023-05-19T00:17:59.946Z,1703.00
2023-05-19T00:19:00.075Z,1712.00
2023-05-19T00:19:59.971Z,1705.00
2023-05-19T00:20:59.995Z,1746.00
2023-05-19T00:22:00.019Z,1744.00
2023-05-19T00:23:00.042Z,1724.00
2023-05-19T00:24:00.142Z,1699.00
2023-05-19T00:25:00.155Z,1699.00
2023-05-19T00:26:00.115Z,1739.00
2023-05-19T00:27:00.133Z,1715.00
2023-05-19T00:28:00.137Z,1765.00
2023-05-19T00:29:00.132Z,1740.00
2023-05-19T00:30:00.171Z,1743.00
2023-05-19T00:31:00.194Z,1742.00
2023-05-19T00:32:00.313Z,1733.00
2023-05-19T00:33:00.288Z,1746.00
2023-05-19T00:34:00.253Z,1765.00
2023-05-19T00:35:00.276Z,1763.00
2023-05-19T00:36:00.264Z,1746.00
2023-05-19T00:37:00.303Z,1729.00
2023-05-19T00:38:00.295Z,1735.00
2023-05-19T00:39:00.319Z,1732.00
2023-05-19T00:40:00.364Z,1734.00
2023-05-19T00:41:00.416Z,1759.00
2023-05-19T00:42:00.452Z,1757.00
2023-05-19T00:43:00.401Z,1804.00
2023-05-19T00:44:00.420Z,1820.00
2023-05-19T00:45:00.470Z,1827.00
2023-05-19T00:46:00.517Z,1818.00
2023-05-19T00:47:00.569Z,1818.00
2023-05-19T00:48:00.509Z,1838.00
2023-05-19T00:49:00.522Z,1809.00
2023-05-19T00:50:00.571Z,1821.00
2023-05-19T00:51:00.573Z,1870.00
2023-05-19T00:52:00.587Z,1855.00
2023-05-19T00:53:00.610Z,1867.00
2023-05-19T00:54:00.630Z,1851.00
2023-05-19T00:55:00.660Z,1851.00
2023-05-19T00:56:00.729Z,1842.00
2023-05-19T00:57:00.716Z,1866.00
2023-05-19T00:58:00.730Z,1848.00
2023-05-19T00:59:00.726Z,1829.00
2023-05-19T01:00:00.771Z,1833.00
2023-05-19T01:01:00.848Z,1839.00
2023-05-19T01:02:00.781Z,1853.00
2023-05-19T01:03:00.926Z,1860.00
2023-05-19T01:04:00.953Z,1877.00
2023-05-19T01:05:00.850Z,1885.00
2023-05-19T01:06:00.897Z,1902.00
2023-05-19T01:07:00.919Z,1911.00
2023-05-19T01:08:00.922Z,1889.00
2023-05-19T01:09:00.919Z,1899.00
2023-05-19T01:10:00.955Z,1922.00
2023-05-19T01:11:00.966Z,1934.00
2023-05-19T01:12:00.991Z,1948.00
2023-05-19T01:13:00.992Z,1942.00
2023-05-19T01:14:01.031Z,1949.00
2023-05-19T01:15:01.029Z,1929.00
2023-05-19T01:16:01.107Z,1930.00
2023-05-19T01:17:01.093Z,1919.00
2023-05-19T01:18:01.170Z,1919.00
2023-05-19T01:19:01.126Z,1893.00
2023-05-19T01:20:01.174Z,1901.00
2023-05-19T01:21:01.145Z,1915.00
2023-05-19T01:22:01.235Z,1912.00
2023-05-19T01:23:01.185Z,1904.00
2023-05-19T01:24:01.216Z,1902.00
2023-05-19T01:25:01.238Z,1917.00
2023-05-19T01:26:01.279Z,1904.00
2023-05-19T01:27:01.287Z,1923.00
2023-05-19T01:28:01.315Z,1930.00
2023-05-19T01:29:01.416Z,1969.00
2023-05-19T01:30:01.352Z,1971.00
2023-05-19T01:31:01.369Z,1969.00
2023-05-19T01:32:01.409Z,1968.00
2023-05-19T01:33:01.482Z,1969.00
2023-05-19T01:34:01.479Z,1957.00
2023-05-19T01:35:01.468Z,1948.00
2023-05-19T01:36:01.779Z,1949.00
2023-05-19T01:37:01.493Z,1947.00
2023-05-19T01:38:01.510Z,1947.00
2023-05-19T01:39:01.555Z,1960.00
2023-05-19T01:40:01.562Z,1933.00
2023-05-19T01:41:01.631Z,1938.00
2023-05-19T01:42:01.600Z,1962.00
2023-05-19T01:43:01.649Z,1964.00
2023-05-19T01:44:01.675Z,1954.00
2023-05-19T01:45:01.693Z,1959.00
2023-05-19T01:46:01.743Z,1957.00
2023-05-19T01:47:01.731Z,1937.00
2023-05-19T01:48:01.810Z,1959.00
2023-05-19T01:49:01.759Z,1974.00
2023-05-19T01:50:01.792Z,2005.00
2023-05-19T01:51:01.801Z,1988.00
2023-05-19T01:52:01.834Z,1961.00
2023-05-19T01:53:01.847Z,1973.00
2023-05-19T01:54:01.885Z,1993.00
2023-05-19T01:55:01.899Z,2003.00
2023-05-19T01:56:01.914Z,2028.00
2023-05-19T01:57:01.929Z,2027.00
2023-05-19T01:58:01.993Z,2018.00
2023-05-19T01:59:01.986Z,2001.00
2023-05-19T02:00:01.990Z,2023.00
2023-05-19T02:01:02.072Z,2008.00
2023-05-19T02:02:02.051Z,2010.00
2023-05-19T02:03:02.139Z,1997.00
2023-05-19T02:04:02.081Z,1980.00
2023-05-19T02:05:02.126Z,2015.00
2023-05-19T02:06:02.153Z,1995.00
2023-05-19T02:07:02.137Z,1999.00
2023-05-19T02:08:02.142Z,1970.00
2023-05-19T02:09:02.180Z,1971.00
2023-05-19T02:10:02.189Z,1969.00
2023-05-19T02:11:02.216Z,1971.00
2023-05-19T02:12:02.224Z,1968.00
2023-05-19T02:13:02.246Z,1963.00
2023-05-19T02:14:02.276Z,1942.00
2023-05-19T02:15:02.295Z,1954.00
2023-05-19T02:16:02.347Z,1963.00
2023-05-19T02:17:02.368Z,1977.00
2023-05-19T02:18:02.388Z,1979.00
2023-05-19T02:19:02.400Z,1999.00
2023-05-19T02:20:02.392Z,1999.00
2023-05-19T02:21:02.440Z,2005.00
2023-05-19T02:22:02.442Z,2016.00
2023-05-19T02:23:02.482Z,2011.00
2023-05-19T02:24:02.503Z,1992.00
2023-05-19T02:25:02.520Z,1980.00
2023-05-19T02:26:02.531Z,1994.00
2023-05-19T02:27:02.566Z,1983.00
2023-05-19T02:28:02.563Z,1985.00
2023-05-19T02:29:02.604Z,1999.00
2023-05-19T02:30:02.608Z,1982.00
2023-05-19T02:31:02.628Z,1989.00
2023-05-19T02:32:02.723Z,2000.00
2023-05-19T02:33:02.720Z,2065.00
2023-05-19T02:34:02.698Z,2055.00
2023-05-19T02:35:02.722Z,2026.00
2023-05-19T02:36:02.782Z,2032.00
2023-05-19T02:37:02.776Z,2042.00
2023-05-19T02:38:02.799Z,2028.00
2023-05-19T02:39:02.798Z,2012.00
2023-05-19T02:40:02.846Z,2006.00
2023-05-19T02:41:02.854Z,2011.00
2023-05-19T02:42:02.866Z,2025.00
2023-05-19T02:43:02.894Z,2028.00
2023-05-19T02:44:02.917Z,2053.00
2023-05-19T02:45:02.930Z,2051.00
2023-05-19T02:46:02.968Z,2039.00
2023-05-19T02:47:02.987Z,2038.00
2023-05-19T02:48:03.180Z,2058.00
2023-05-19T02:49:03.047Z,2042.00
2023-05-19T02:50:03.042Z,2044.00
2023-05-19T02:51:03.091Z,2036.00
2023-05-19T02:52:03.092Z,2006.00
2023-05-19T02:53:03.088Z,2003.00
2023-05-19T02:54:03.127Z,2029.00
2023-05-19T02:55:03.148Z,2037.00
2023-05-19T02:56:03.226Z,2026.00
2023-05-19T02:57:03.191Z,2040.00
2023-05-19T02:58:03.218Z,2049.00
2023-05-19T02:59:03.228Z,2070.00
2023-05-19T03:00:03.241Z,2103.00
2023-05-19T03:01:03.267Z,2069.00
2023-05-19T03:02:03.316Z,2071.00
2023-05-19T03:03:03.375Z,2080.00
2023-05-19T03:04:03.516Z,2092.00
2023-05-19T03:05:03.358Z,2095.00
2023-05-19T03:06:03.365Z,2097.00
2023-05-19T03:07:03.380Z,2078.00
2023-05-19T03:08:03.396Z,2113.00
2023-05-19T03:09:03.418Z,2106.00
2023-05-19T03:10:03.517Z,2112.00
2023-05-19T03:11:03.510Z,2106.00
2023-05-19T03:12:03.522Z,2093.00
2023-05-19T03:13:03.478Z,2101.00
2023-05-19T03:14:03.508Z,2103.00
2023-05-19T03:15:03.537Z,2110.00
2023-05-19T03:16:03.598Z,2115.00
2023-05-19T03:17:03.585Z,2131.00
2023-05-19T03:18:03.656Z,2125.00
2023-05-19T03:19:03.661Z,2163.00
2023-05-19T03:20:03.663Z,2156.00
2023-05-19T03:21:03.684Z,2147.00
2023-05-19T03:22:03.756Z,2144.00
2023-05-19T03:23:03.704Z,2156.00
2023-05-19T03:24:03.738Z,2134.00
2023-05-19T03:25:03.888Z,2158.00
2023-05-19T03:26:03.778Z,2146.00
2023-05-19T03:27:03.880Z,2154.00
2023-05-19T03:28:03.955Z,2138.00
2023-05-19T03:29:03.930Z,2137.00
2023-05-19T03:30:06.274Z,2138.00
2023-05-19T03:31:03.910Z,2166.00
2023-05-19T03:32:03.946Z,2177.00
2023-05-19T03:33:03.943Z,2158.00
2023-05-19T03:34:03.891Z,2159.00
2023-05-19T03:35:03.844Z,2152.00
2023-05-19T03:36:03.921Z,2163.00
2023-05-19T03:37:03.843Z,2179.00
2023-05-19T03:38:03.834Z,2186.00
2023-05-19T03:39:03.835Z,2189.00
2023-05-19T03:40:03.802Z,2187.00
2023-05-19T03:41:03.831Z,2172.00
2023-05-19T03:42:03.801Z,2170.00
2023-05-19T03:43:03.802Z,2161.00
2023-05-19T03:44:03.789Z,2182.00
2023-05-19T03:45:03.776Z,2178.00
2023-05-19T03:46:03.853Z,2178.00
2023-05-19T03:47:03.821Z,2162.00
2023-05-19T03:48:03.822Z,2186.00
2023-05-19T03:49:03.760Z,2185.00
2023-05-19T03:50:03.734Z,2184.00
2023-05-19T03:51:03.742Z,2192.00
2023-05-19T03:52:03.775Z,2171.00
2023-05-19T03:53:03.736Z,2154.00
2023-05-19T03:54:03.702Z,2166.00
2023-05-19T03:55:03.712Z,2188.00
2023-05-19T03:56:03.695Z,2200.00
2023-05-19T03:57:03.692Z,2198.00
2023-05-19T03:58:03.684Z,2188.00
2023-05-19T03:59:03.675Z,2224.00
2023-05-19T04:00:03.658Z,2197.00
2023-05-19T04:01:03.683Z,2223.00
2023-05-19T04:02:03.670Z,2223.00
2023-05-19T04:03:03.686Z,2237.00
2023-05-19T04:04:03.681Z,2210.00
2023-05-19T04:05:03.619Z,2210.00
2023-05-19T04:06:03.629Z,2224.00
2023-05-19T04:07:03.639Z,2250.00
2023-05-19T04:08:03.642Z,2230.00
2023-05-19T04:09:03.591Z,2242.00
2023-05-19T04:10:03.576Z,2233.00
2023-05-19T04:11:03.581Z,2251.00
2023-05-19T04:12:03.580Z,2255.00
2023-05-19T04:13:03.575Z,2272.00
2023-05-19T04:14:03.569Z,2233.00
2023-05-19T04:15:03.569Z,2233.00
2023-05-19T04:16:03.594Z,2230.00
2023-05-19T04:17:03.549Z,2237.00
2023-05-19T04:18:03.536Z,2240.00
2023-05-19T04:19:03.606Z,2231.00
2023-05-19T04:20:03.532Z,2223.00
2023-05-19T04:21:03.511Z,2221.00
2023-05-19T04:22:03.498Z,2246.00
2023-05-19T04:23:03.490Z,2231.00
2023-05-19T04:24:03.496Z,2212.00
2023-05-19T04:25:03.481Z,2210.00
2023-05-19T04:26:03.539Z,2224.00
2023-05-19T04:27:03.481Z,2216.00
2023-05-19T04:28:03.481Z,2202.00
2023-05-19T04:29:03.452Z,2218.00
2023-05-19T04:30:03.452Z,2218.00
2023-05-19T04:31:03.466Z,2225.00
2023-05-19T04:32:03.426Z,2176.00
2023-05-19T04:33:03.465Z,2198.00
2023-05-19T04:34:03.430Z,2190.00
2023-05-19T04:35:03.407Z,2155.00
2023-05-19T04:36:03.409Z,2159.00
2023-05-19T04:37:03.384Z,2162.00
2023-05-19T04:38:03.424Z,2168.00
2023-05-19T04:39:03.386Z,2164.00
2023-05-19T04:40:03.367Z,2152.00
2023-05-19T04:41:03.363Z,2138.00
2023-05-19T04:42:03.376Z,2139.00
2023-05-19T04:43:03.347Z,2149.00
2023-05-19T04:44:03.354Z,2120.00
2023-05-19T04:45:03.356Z,2133.00
2023-05-19T04:46:03.336Z,2113.00
2023-05-19T04:47:03.393Z,2096.00
2023-05-19T04:48:03.386Z,2087.00
2023-05-19T04:49:03.311Z,2090.00
2023-05-19T04:50:03.306Z,2078.00
2023-05-19T04:51:03.338Z,2084.00
2023-05-19T04:52:03.352Z,2100.00
2023-05-19T04:53:03.386Z,2100.00
2023-05-19T04:54:03.395Z,2119.00
2023-05-19T04:55:03.380Z,2139.00
2023-05-19T04:56:03.419Z,2129.00
2023-05-19T04:57:03.402Z,2139.00
2023-05-19T04:58:03.430Z,2141.00
2023-05-19T04:59:03.411Z,2080.00
2023-05-19T05:00:03.444Z,2067.00
2023-05-19T05:01:03.442Z,2070.00
2023-05-19T05:02:03.469Z,2051.00
2023-05-19T05:03:03.546Z,2046.00
2023-05-19T05:04:03.555Z,2063.00
2023-05-19T05:05:03.441Z,2105.00
2023-05-19T05:06:03.499Z,2125.00
2023-05-19T05:07:03.504Z,2135.00
2023-05-19T05:08:03.509Z,2198.00
2023-05-19T05:09:03.484Z,2073.00
2023-05-19T05:10:03.489Z,2006.00
2023-05-19T05:11:03.516Z,1979.00
2023-05-19T05:12:03.518Z,1954.00
2023-05-19T05:13:03.527Z,1923.00
2023-05-19T05:14:03.523Z,1901.00
2023-05-19T05:15:03.552Z,1880.00
2023-05-19T05:16:03.598Z,1861.00
2023-05-19T05:17:03.576Z,1863.00
2023-05-19T05:18:03.640Z,1827.00
2023-05-19T05:19:03.600Z,1805.00
2023-05-19T05:20:03.604Z,1769.00
2023-05-19T05:21:03.612Z,1757.00
2023-05-19T05:22:03.642Z,1752.00
2023-05-19T05:23:03.650Z,1720.00
2023-05-19T05:24:03.645Z,1702.00
2023-05-19T05:25:03.661Z,1697.00
2023-05-19T05:26:03.704Z,1688.00
2023-05-19T05:27:03.721Z,1667.00
2023-05-19T05:28:03.745Z,1667.00
2023-05-19T05:29:03.732Z,1643.00
2023-05-19T05:30:03.724Z,1639.00
2023-05-19T05:31:03.783Z,1643.00
2023-05-19T05:32:03.833Z,1637.00
2023-05-19T05:33:03.906Z,1624.00
2023-05-19T05:34:03.766Z,1609.00
2023-05-19T05:35:03.835Z,1603.00
2023-05-19T05:36:03.848Z,1599.00
2023-05-19T05:37:03.817Z,1605.00
2023-05-19T05:38:03.806Z,1609.00
2023-05-19T05:39:03.834Z,1603.00
2023-05-19T05:40:03.834Z,1617.00
2023-05-19T05:41:03.873Z,1628.00
2023-05-19T05:42:03.859Z,1636.00
2023-05-19T05:43:03.861Z,1655.00
2023-05-19T05:44:03.858Z,1669.00
2023-05-19T05:45:03.861Z,1665.00
2023-05-19T05:46:03.918Z,1673.00
2023-05-19T05:47:03.899Z,1677.00
2023-05-19T05:48:03.978Z,1675.00
2023-05-19T05:49:03.900Z,1681.00
2023-05-19T05:50:03.880Z,1700.00
2023-05-19T05:51:03.889Z,1702.00
2023-05-19T05:52:06.352Z,1727.00
2023-05-19T05:53:03.869Z,1744.00
2023-05-19T05:54:03.863Z,1737.00
2023-05-19T05:55:03.872Z,1729.00
2023-05-19T05:56:03.870Z,1713.00
2023-05-19T05:57:03.859Z,1708.00
2023-05-19T05:58:03.860Z,1703.00
2023-05-19T05:59:03.862Z,1706.00
2023-05-19T06:00:03.859Z,1703.00
2023-05-19T06:01:03.846Z,1711.00
2023-05-19T06:02:03.913Z,1709.00
2023-05-19T06:03:03.918Z,1732.00
2023-05-19T06:04:03.818Z,1731.00
2023-05-19T06:05:03.833Z,1761.00
2023-05-19T06:06:03.898Z,1729.00
2023-05-19T06:07:03.800Z,1741.00
2023-05-19T06:08:03.803Z,1728.00
2023-05-19T06:09:03.809Z,1745.00
2023-05-19T06:10:03.790Z,1753.00
2023-05-19T06:11:03.784Z,1734.00
2023-05-19T06:12:03.765Z,1736.00
2023-05-19T06:13:03.763Z,1744.00
2023-05-19T06:14:03.756Z,1741.00
2023-05-19T06:15:03.750Z,1745.00
2023-05-19T06:16:03.780Z,1751.00
2023-05-19T06:17:03.720Z,1765.00
2023-05-19T06:18:03.802Z,1761.00
2023-05-19T06:19:03.743Z,1760.00
2023-05-19T06:20:03.726Z,1751.00
2023-05-19T06:21:03.710Z,1755.00
2023-05-19T06:22:03.700Z,1776.00
2023-05-19T06:23:03.696Z,1759.00
2023-05-19T06:24:03.685Z,1773.00
2023-05-19T06:25:03.679Z,1821.00
2023-05-19T06:26:03.669Z,1899.00
2023-05-19T06:27:03.669Z,1868.00
2023-05-19T06:28:03.690Z,1897.00
2023-05-19T06:29:03.668Z,1889.00
2023-05-19T06:30:03.645Z,1883.00
2023-05-19T06:31:03.703Z,1873.00
2023-05-19T06:32:03.617Z,1915.00
2023-05-19T06:33:03.730Z,1963.00
2023-05-19T06:34:03.600Z,1998.00
2023-05-19T06:35:03.593Z,1998.00
2023-05-19T06:36:03.592Z,2014.00
2023-05-19T06:37:03.607Z,2000.00
2023-05-19T06:38:03.639Z,2015.00
2023-05-19T06:39:03.596Z,2042.00
2023-05-19T06:40:03.566Z,2065.00
2023-05-19T06:41:03.578Z,2111.00
2023-05-19T06:42:03.567Z,2116.00
2023-05-19T06:43:03.545Z,2194.00
2023-05-19T06:44:03.529Z,2256.00
2023-05-19T06:45:03.555Z,2237.00
2023-05-19T06:46:03.534Z,2274.00
2023-05-19T06:47:03.587Z,2356.00
2023-05-19T06:48:03.584Z,2378.00
2023-05-19T06:49:03.509Z,2408.00
2023-05-19T06:50:03.511Z,2414.00
2023-05-19T06:51:03.496Z,2423.00
2023-05-19T06:52:03.475Z,2405.00
2023-05-19T06:53:03.489Z,2382.00
2023-05-19T06:54:03.460Z,2346.00
2023-05-19T06:55:03.451Z,2356.00
2023-05-19T06:56:03.465Z,2364.00
2023-05-19T06:57:03.465Z,2350.00
2023-05-19T06:58:03.467Z,2378.00
2023-05-19T06:59:03.448Z,2367.00
2023-05-19T07:00:03.425Z,2418.00
2023-05-19T07:01:03.422Z,2416.00
2023-05-19T07:02:03.448Z,2412.00
2023-05-19T07:03:03.497Z,2450.00
2023-05-19T07:04:03.498Z,2519.00
2023-05-19T07:05:03.386Z,2515.00
2023-05-19T07:06:04.571Z,2561.00
2023-05-19T07:07:03.460Z,2591.00
2023-05-19T07:08:03.463Z,2588.00
2023-05-19T07:09:03.488Z,2565.00
2023-05-19T07:10:03.557Z,2537.00
2023-05-19T07:11:03.593Z,2570.00
2023-05-19T07:12:03.663Z,2560.00
2023-05-19T07:13:03.723Z,2577.00
2023-05-19T07:14:03.766Z,2545.00
2023-05-19T07:15:03.819Z,2501.00
2023-05-19T07:16:03.900Z,2478.00
2023-05-19T07:17:03.956Z,2446.00
2023-05-19T07:18:04.061Z,2383.00
2023-05-19T07:19:04.102Z,2336.00
2023-05-19T07:20:04.114Z,2328.00
2023-05-19T07:21:04.162Z,2275.00
2023-05-19T07:22:04.207Z,2230.00
2023-05-19T07:23:04.315Z,2222.00
2023-05-19T07:24:04.322Z,2201.00
2023-05-19T07:25:04.399Z,2189.00
2023-05-19T07:26:04.455Z,2186.00
2023-05-19T07:27:04.523Z,2181.00
2023-05-19T07:28:04.571Z,2168.00
2023-05-19T07:29:04.617Z,2173.00
2023-05-19T07:30:04.680Z,2159.00
2023-05-19T07:31:04.729Z,2165.00
2023-05-19T07:32:04.832Z,2176.00
2023-05-19T07:33:04.888Z,2154.00
2023-05-19T07:34:04.902Z,2173.00
2023-05-19T07:35:04.976Z,2146.00
2023-05-19T07:36:05.037Z,2117.00
2023-05-19T07:37:05.126Z,2083.00
2023-05-19T07:38:05.136Z,2051.00
2023-05-19T07:39:05.379Z,2028.00
2023-05-19T07:40:05.267Z,1989.00
2023-05-19T07:41:05.332Z,1939.00
2023-05-19T07:42:05.330Z,1890.00
2023-05-19T07:43:05.398Z,1905.00
2023-05-19T07:44:05.458Z,1888.00
2023-05-19T07:45:05.485Z,1900.00
2023-05-19T07:46:05.604Z,1880.00
2023-05-19T07:47:05.590Z,1898.00
2023-05-19T07:48:05.720Z,1910.00
2023-05-19T07:49:05.700Z,1862.00
2023-05-19T07:50:05.768Z,1875.00
2023-05-19T07:51:05.840Z,1895.00
2023-05-19T07:52:05.881Z,1891.00
2023-05-19T07:53:06.003Z,1882.00
2023-05-19T07:54:06.067Z,1978.00
2023-05-19T07:55:06.051Z,1994.00
2023-05-19T07:56:06.061Z,1947.00
2023-05-19T07:57:06.108Z,1938.00
2023-05-19T07:58:06.132Z,2055.00
2023-05-19T07:59:06.185Z,2022.00
2023-05-19T08:00:06.247Z,2023.00
2023-05-19T08:01:06.285Z,2004.00
2023-05-19T08:02:06.393Z,2020.00
2023-05-19T08:03:06.521Z,2090.00
2023-05-19T08:04:06.455Z,2125.00
2023-05-19T08:05:06.406Z,2154.00
2023-05-19T08:06:06.444Z,2143.00
2023-05-19T08:07:06.474Z,2111.00
2023-05-19T08:08:06.517Z,2112.00
2023-05-19T08:09:06.560Z,2091.00
2023-05-19T08:10:06.629Z,2117.00
2023-05-19T08:11:06.596Z,2087.00
2023-05-19T08:12:06.626Z,2110.00
2023-05-19T08:13:06.622Z,2090.00
2023-05-19T08:14:06.675Z,2084.00
2023-05-19T08:15:06.707Z,2104.00
2023-05-19T08:16:06.755Z,2077.00
2023-05-19T08:17:06.735Z,2098.00
2023-05-19T08:18:06.793Z,2112.00
2023-05-19T08:19:06.863Z,2078.00
2023-05-19T08:20:06.927Z,2067.00
2023-05-19T08:21:06.945Z,2082.00
2023-05-19T08:22:06.932Z,2084.00
2023-05-19T08:23:06.952Z,2080.00
2023-05-19T08:24:06.955Z,2079.00
2023-05-19T08:25:06.975Z,2107.00
2023-05-19T08:26:07.004Z,2108.00
2023-05-19T08:27:07.031Z,2129.00
2023-05-19T08:28:07.077Z,2122.00
2023-05-19T08:29:07.119Z,2137.00
2023-05-19T08:30:07.165Z,2176.00
2023-05-19T08:31:07.223Z,2194.00
2023-05-19T08:32:07.250Z,2212.00
2023-05-19T08:33:07.422Z,2225.00
2023-05-19T08:34:07.314Z,2208.00
2023-05-19T08:35:07.365Z,2222.00
2023-05-19T08:36:07.416Z,2225.00
2023-05-19T08:37:07.465Z,2238.00
2023-05-19T08:38:07.500Z,2219.00
2023-05-19T08:39:07.548Z,2243.00
2023-05-19T08:40:07.610Z,2284.00
2023-05-19T08:41:07.637Z,2258.00
2023-05-19T08:42:07.701Z,2251.00
2023-05-19T08:43:07.750Z,2266.00
2023-05-19T08:44:07.804Z,2258.00
2023-05-19T08:45:07.845Z,2267.00
2023-05-19T08:46:07.934Z,2239.00
2023-05-19T08:47:08.140Z,2196.00
2023-05-19T08:48:08.064Z,2159.00
2023-05-19T08:49:08.042Z,2126.00
2023-05-19T08:50:08.104Z,2108.00
2023-05-19T08:51:08.156Z,2088.00
2023-05-19T08:52:08.198Z,2060.00
2023-05-19T08:53:12.747Z,2060.00
2023-05-19T08:54:09.268Z,2055.00
2023-05-19T08:55:08.260Z,2028.00
2023-05-19T08:56:08.256Z,2013.00
2023-05-19T08:57:08.233Z,2023.00
2023-05-19T08:58:08.227Z,1995.00
2023-05-19T08:59:08.231Z,2000.00
2023-05-19T09:00:08.194Z,2005.00
2023-05-19T09:01:08.261Z,1983.00
2023-05-19T09:02:08.190Z,1987.00
2023-05-19T09:04:08.257Z,1953.00
2023-05-19T09:05:08.391Z,1932.00
2023-05-19T09:06:08.251Z,1912.00
2023-05-19T09:07:08.151Z,1937.00
2023-05-19T09:08:08.151Z,1999.00
2023-05-19T09:09:08.130Z,2064.00
2023-05-19T09:10:08.144Z,2140.00
2023-05-19T09:11:08.135Z,2160.00
2023-05-19T09:12:08.130Z,2162.00
2023-05-19T09:13:08.117Z,2186.00
2023-05-19T09:14:08.087Z,2174.00
2023-05-19T09:15:08.102Z,2196.00
2023-05-19T09:16:08.390Z,2174.00
2023-05-19T09:17:08.212Z,2134.00
2023-05-19T09:18:08.117Z,2117.00
2023-05-19T09:19:08.133Z,2134.00
2023-05-19T09:20:08.071Z,2133.00
2023-05-19T09:21:08.051Z,2125.00
2023-05-19T09:22:08.037Z,2117.00
2023-05-19T09:23:08.046Z,2149.00
2023-05-19T09:24:08.063Z,2132.00
2023-05-19T09:25:08.096Z,2134.00
2023-05-19T09:26:08.207Z,2107.00
2023-05-19T09:27:08.057Z,2106.00
2023-05-19T09:28:08.027Z,2068.00
2023-05-19T09:29:07.985Z,2068.00
2023-05-19T09:30:07.994Z,2018.00
2023-05-19T09:31:07.982Z,2048.00
2023-05-19T09:32:08.003Z,2067.00
2023-05-19T09:33:08.065Z,2053.00
2023-05-19T09:34:07.955Z,2044.00
2023-05-19T09:35:07.976Z,2039.00
2023-05-19T09:36:07.942Z,2054.00
2023-05-19T09:37:07.945Z,2072.00
2023-05-19T09:38:07.925Z,2044.00
2023-05-19T09:39:07.913Z,2031.00
2023-05-19T09:40:07.915Z,2024.00
2023-05-19T09:41:07.929Z,2021.00
2023-05-19T09:42:07.919Z,2027.00
2023-05-19T09:43:07.939Z,2037.00
2023-05-19T09:44:07.954Z,2025.00
2023-05-19T09:45:07.893Z,2033.00
2023-05-19T09:46:08.063Z,2056.00
2023-05-19T09:47:07.881Z,2022.00
2023-05-19T09:48:08.105Z,1985.00
2023-05-19T09:49:07.873Z,1977.00
2023-05-19T09:50:07.865Z,1933.00
2023-05-19T09:51:08.065Z,1923.00
2023-05-19T09:52:07.922Z,1956.00
2023-05-19T09:53:07.850Z,1991.00
2023-05-19T09:54:07.835Z,2013.00
2023-05-19T09:55:07.819Z,2056.00
2023-05-19T09:56:07.832Z,2060.00
2023-05-19T09:57:08.621Z,2060.00
2023-05-19T09:58:07.788Z,2090.00
2023-05-19T09:59:07.788Z,2110.00
2023-05-19T10:00:07.784Z,2120.00
2023-05-19T10:01:07.793Z,2135.00
2023-05-19T10:02:07.777Z,2151.00
2023-05-19T10:03:07.843Z,2181.00
2023-05-19T10:04:07.759Z,2198.00
2023-05-19T10:05:07.780Z,2205.00
2023-05-19T10:06:07.737Z,2206.00
2023-05-19T10:07:07.751Z,2225.00
2023-05-19T10:08:07.741Z,2153.00
2023-05-19T10:09:07.735Z,2077.00
2023-05-19T10:10:07.720Z,2016.00
2023-05-19T10:11:07.721Z,1980.00
2023-05-19T10:12:07.708Z,1928.00
2023-05-19T10:13:07.729Z,1905.00
2023-05-19T10:14:07.694Z,1900.00
2023-05-19T10:15:07.694Z,1885.00
2023-05-19T10:16:07.760Z,1847.00
2023-05-19T10:17:07.795Z,1842.00
2023-05-19T10:18:07.770Z,1827.00
2023-05-19T10:19:07.783Z,1839.00
2023-05-19T10:20:07.801Z,1825.00
2023-05-19T10:21:07.814Z,1836.00
2023-05-19T10:22:07.843Z,1683.00
2023-05-19T10:23:07.890Z,1727.00
2023-05-19T10:24:07.930Z,1797.00
2023-05-19T10:25:08.013Z,1773.00
2023-05-19T10:26:07.987Z,1728.00
2023-05-19T10:27:08.033Z,1687.00
2023-05-19T10:28:08.064Z,1615.00
2023-05-19T10:29:08.090Z,1589.00
2023-05-19T10:30:09.355Z,1569.00
2023-05-19T10:31:08.143Z,1506.00
2023-05-19T10:32:08.201Z,1561.00
2023-05-19T10:33:08.133Z,1599.00
2023-05-19T10:34:08.093Z,1545.00
2023-05-19T10:35:08.079Z,1519.00
2023-05-19T10:36:08.085Z,1492.00
2023-05-19T10:37:08.097Z,1439.00
2023-05-19T10:38:08.084Z,1433.00
2023-05-19T10:39:08.098Z,1454.00
2023-05-19T10:40:08.055Z,1452.00
2023-05-19T10:41:08.048Z,1496.00
2023-05-19T10:42:08.055Z,1499.00
2023-05-19T10:43:08.054Z,1464.00
2023-05-19T10:44:08.021Z,1581.00
2023-05-19T10:45:08.026Z,1728.00
2023-05-19T10:46:08.019Z,1749.00
2023-05-19T10:47:08.092Z,1715.00
2023-05-19T10:48:08.060Z,1683.00
2023-05-19T10:49:08.002Z,1620.00
2023-05-19T10:50:07.988Z,1667.00
2023-05-19T10:51:07.981Z,1770.00
2023-05-19T10:52:07.983Z,1829.00
2023-05-19T10:53:07.993Z,1788.00
2023-05-19T10:54:07.971Z,1761.00
2023-05-19T10:55:07.984Z,1806.00
2023-05-19T10:56:07.979Z,1836.00
2023-05-19T10:57:07.989Z,1841.00
2023-05-19T10:58:07.975Z,1823.00
2023-05-19T10:59:07.936Z,1770.00
2023-05-19T11:00:07.956Z,1748.00
2023-05-19T11:01:07.955Z,1793.00
2023-05-19T11:02:08.046Z,1782.00
2023-05-19T11:03:07.999Z,1805.00
2023-05-19T11:04:08.064Z,1777.00
2023-05-19T11:05:07.914Z,1754.00
2023-05-19T11:06:07.935Z,1815.00
2023-05-19T11:07:07.897Z,1869.00
2023-05-19T11:08:07.911Z,1844.00
2023-05-19T11:09:07.887Z,1850.00
2023-05-19T11:10:07.877Z,1847.00
2023-05-19T11:11:07.904Z,1813.00
2023-05-19T11:12:07.890Z,1834.00
2023-05-19T11:13:07.898Z,1876.00
2023-05-19T11:14:07.870Z,1873.00
2023-05-19T11:15:07.855Z,1881.00
2023-05-19T11:16:07.877Z,1906.00
2023-05-19T11:17:07.891Z,1892.00
2023-05-19T11:18:07.947Z,1870.00
2023-05-19T11:19:07.933Z,1870.00
2023-05-19T11:20:07.905Z,1940.00
2023-05-19T11:21:07.923Z,1911.00
2023-05-19T11:22:07.919Z,1959.00
2023-05-19T11:23:08.064Z,1933.00
2023-05-19T11:24:07.891Z,1877.00
2023-05-19T11:25:07.776Z,1917.00
2023-05-19T11:26:07.768Z,1855.00
2023-05-19T11:27:07.759Z,1911.00
2023-05-19T11:28:07.773Z,1838.00
2023-05-19T11:29:07.802Z,1906.00
2023-05-19T11:30:07.761Z,1937.00
2023-05-19T11:31:07.730Z,1851.00
2023-05-19T11:32:07.781Z,1805.00
2023-05-19T11:33:07.821Z,1810.00
2023-05-19T11:34:07.713Z,1695.00
2023-05-19T11:35:07.700Z,1663.00
2023-05-19T11:36:07.749Z,1704.00
2023-05-19T11:37:07.705Z,1731.00
2023-05-19T11:38:07.727Z,1672.00
2023-05-19T11:39:07.682Z,1538.00
2023-05-19T11:40:07.674Z,1461.00
2023-05-19T11:41:07.652Z,1456.00
2023-05-19T11:42:07.663Z,1460.00
2023-05-19T11:43:07.675Z,1477.00
2023-05-19T11:44:07.652Z,1390.00
2023-05-19T11:45:07.636Z,1346.00
2023-05-19T11:46:07.761Z,1260.00
2023-05-19T11:47:07.706Z,1308.00
2023-05-19T11:48:07.766Z,1300.00
2023-05-19T11:49:07.734Z,1391.00
2023-05-19T11:50:07.791Z,1297.00
2023-05-19T11:51:07.795Z,1231.00
2023-05-19T11:52:07.825Z,1139.00
2023-05-19T11:53:07.849Z,1146.00
2023-05-19T11:54:07.872Z,1174.00
2023-05-19T11:55:07.897Z,1144.00
2023-05-19T11:56:07.931Z,1111.00
2023-05-19T11:57:07.964Z,1130.00
2023-05-19T11:58:07.971Z,1136.00
2023-05-19T11:59:08.025Z,1106.00
2023-05-19T12:00:08.060Z,1153.00
2023-05-19T12:01:08.074Z,1053.00
2023-05-19T12:02:08.130Z,1034.00
2023-05-19T12:03:08.491Z,1032.00
2023-05-19T12:04:08.272Z,1077.00
2023-05-19T12:05:08.245Z,1131.00
2023-05-19T12:06:08.277Z,1140.00
2023-05-19T12:07:08.279Z,1207.00